sensor_id;sensor_type;location;lat;lon;timestamp;P1;durP1;ratioP1;P2;durP2;ratioP2
6422;SDS011;3244;42.708;23.288;2023-04-29T00:02:17;10.77;;;7.32;;
6422;SDS011;3244;42.708;23.288;2023-04-29T00:04:44;15.88;;;7.82;;
6422;SDS011;3244;42.708;23.288;2023-04-29T00:07:12;15.88;;;7.80;;
6422;SDS011;3244;42.708;23.288;2023-04-29T00:09:40;13.90;;;7.10;;
6422;SDS011;3244;42.708;23.288;2023-04-29T00:12:06;12.50;;;8.00;;
6422;SDS011;3244;42.708;23.288;2023-04-29T00:14:34;14.80;;;7.30;;
6422;SDS011;3244;42.708;23.288;2023-04-29T00:17:01;11.82;;;7.63;;
6422;SDS011;3244;42.708;23.288;2023-04-29T00:19:27;16.77;;;6.80;;
6422;SDS011;3244;42.708;23.288;2023-04-29T00:21:54;14.85;;;7.05;;
6422;SDS011;3244;42.708;23.288;2023-04-29T00:24:22;10.30;;;6.80;;
6422;SDS011;3244;42.708;23.288;2023-04-29T00:26:49;15.95;;;7.13;;
6422;SDS011;3244;42.708;23.288;2023-04-29T00:29:16;12.48;;;6.35;;
6422;SDS011;3244;42.708;23.288;2023-04-29T00:31:42;9.43;;;6.28;;
6422;SDS011;3244;42.708;23.288;2023-04-29T00:34:10;6.22;;;5.40;;
6422;SDS011;3244;42.708;23.288;2023-04-29T00:36:36;11.48;;;6.50;;
6422;SDS011;3244;42.708;23.288;2023-04-29T00:39:03;11.07;;;6.22;;
6422;SDS011;3244;42.708;23.288;2023-04-29T00:41:31;8.40;;;5.97;;
6422;SDS011;3244;42.708;23.288;2023-04-29T00:43:58;6.25;;;5.65;;
6422;SDS011;3244;42.708;23.288;2023-04-29T00:46:25;10.27;;;6.18;;
6422;SDS011;3244;42.708;23.288;2023-04-29T00:48:51;11.57;;;6.28;;
6422;SDS011;3244;42.708;23.288;2023-04-29T00:51:18;6.85;;;6.00;;
6422;SDS011;3244;42.708;23.288;2023-04-29T00:53:45;11.93;;;7.32;;
6422;SDS011;3244;42.708;23.288;2023-04-29T00:56:12;9.38;;;6.80;;
6422;SDS011;3244;42.708;23.288;2023-04-29T00:58:41;17.48;;;6.75;;
6422;SDS011;3244;42.708;23.288;2023-04-29T01:01:14;11.82;;;5.93;;
6422;SDS011;3244;42.708;23.288;2023-04-29T01:03:41;8.98;;;6.13;;
6422;SDS011;3244;42.708;23.288;2023-04-29T01:06:11;6.93;;;6.13;;
6422;SDS011;3244;42.708;23.288;2023-04-29T01:08:49;7.55;;;6.00;;
6422;SDS011;3244;42.708;23.288;2023-04-29T01:11:27;10.20;;;6.03;;
6422;SDS011;3244;42.708;23.288;2023-04-29T01:14:01;8.02;;;5.70;;
6422;SDS011;3244;42.708;23.288;2023-04-29T01:16:29;10.73;;;6.45;;
6422;SDS011;3244;42.708;23.288;2023-04-29T01:19:05;6.40;;;5.75;;
6422;SDS011;3244;42.708;23.288;2023-04-29T01:21:45;10.13;;;5.60;;
6422;SDS011;3244;42.708;23.288;2023-04-29T01:24:15;12.32;;;5.93;;
6422;SDS011;3244;42.708;23.288;2023-04-29T01:26:43;11.90;;;5.55;;
6422;SDS011;3244;42.708;23.288;2023-04-29T01:29:19;8.02;;;5.45;;
6422;SDS011;3244;42.708;23.288;2023-04-29T01:31:54;16.00;;;7.05;;
6422;SDS011;3244;42.708;23.288;2023-04-29T01:34:30;7.47;;;6.53;;
6422;SDS011;3244;42.708;23.288;2023-04-29T01:37:05;9.68;;;6.47;;
6422;SDS011;3244;42.708;23.288;2023-04-29T01:39:40;8.27;;;5.88;;
6422;SDS011;3244;42.708;23.288;2023-04-29T01:42:13;6.75;;;6.05;;
6422;SDS011;3244;42.708;23.288;2023-04-29T01:44:45;8.18;;;5.95;;
6422;SDS011;3244;42.708;23.288;2023-04-29T01:47:14;7.20;;;6.10;;
6422;SDS011;3244;42.708;23.288;2023-04-29T01:49:41;8.30;;;5.32;;
6422;SDS011;3244;42.708;23.288;2023-04-29T01:52:10;7.00;;;5.93;;
6422;SDS011;3244;42.708;23.288;2023-04-29T01:54:39;8.90;;;5.90;;
6422;SDS011;3244;42.708;23.288;2023-04-29T01:57:05;8.75;;;6.03;;
6422;SDS011;3244;42.708;23.288;2023-04-29T01:59:32;10.95;;;5.95;;
6422;SDS011;3244;42.708;23.288;2023-04-29T02:01:59;6.57;;;5.88;;
6422;SDS011;3244;42.708;23.288;2023-04-29T02:04:26;6.82;;;6.18;;
6422;SDS011;3244;42.708;23.288;2023-04-29T02:06:52;10.02;;;6.75;;
6422;SDS011;3244;42.708;23.288;2023-04-29T02:09:19;9.07;;;6.15;;
6422;SDS011;3244;42.708;23.288;2023-04-29T02:11:47;11.60;;;6.82;;
6422;SDS011;3244;42.708;23.288;2023-04-29T02:14:14;11.07;;;6.60;;
6422;SDS011;3244;42.708;23.288;2023-04-29T02:16:42;11.48;;;6.00;;
6422;SDS011;3244;42.708;23.288;2023-04-29T02:19:09;15.32;;;6.85;;
6422;SDS011;3244;42.708;23.288;2023-04-29T02:21:36;12.32;;;6.65;;
6422;SDS011;3244;42.708;23.288;2023-04-29T02:24:04;8.43;;;5.93;;
6422;SDS011;3244;42.708;23.288;2023-04-29T02:26:31;7.50;;;6.28;;
6422;SDS011;3244;42.708;23.288;2023-04-29T02:28:59;9.18;;;7.57;;
6422;SDS011;3244;42.708;23.288;2023-04-29T02:31:27;16.42;;;8.48;;
6422;SDS011;3244;42.708;23.288;2023-04-29T02:33:54;16.35;;;7.95;;
6422;SDS011;3244;42.708;23.288;2023-04-29T02:36:21;10.30;;;7.85;;
6422;SDS011;3244;42.708;23.288;2023-04-29T02:38:48;9.68;;;7.68;;
6422;SDS011;3244;42.708;23.288;2023-04-29T02:41:15;9.68;;;7.55;;
6422;SDS011;3244;42.708;23.288;2023-04-29T02:43:42;18.13;;;7.88;;
6422;SDS011;3244;42.708;23.288;2023-04-29T02:46:11;10.52;;;7.85;;
6422;SDS011;3244;42.708;23.288;2023-04-29T02:48:37;14.77;;;8.88;;
6422;SDS011;3244;42.708;23.288;2023-04-29T02:51:04;8.35;;;7.38;;
6422;SDS011;3244;42.708;23.288;2023-04-29T02:53:31;12.73;;;7.80;;
6422;SDS011;3244;42.708;23.288;2023-04-29T02:55:58;12.57;;;8.13;;
6422;SDS011;3244;42.708;23.288;2023-04-29T02:58:25;11.63;;;7.40;;
6422;SDS011;3244;42.708;23.288;2023-04-29T03:00:52;14.30;;;7.00;;
6422;SDS011;3244;42.708;23.288;2023-04-29T03:03:20;8.57;;;7.28;;
6422;SDS011;3244;42.708;23.288;2023-04-29T03:05:47;11.98;;;7.70;;
6422;SDS011;3244;42.708;23.288;2023-04-29T03:08:14;11.32;;;8.68;;
6422;SDS011;3244;42.708;23.288;2023-04-29T03:10:41;10.73;;;8.38;;
6422;SDS011;3244;42.708;23.288;2023-04-29T03:13:07;12.80;;;9.05;;
6422;SDS011;3244;42.708;23.288;2023-04-29T03:15:34;12.32;;;8.65;;
6422;SDS011;3244;42.708;23.288;2023-04-29T03:18:02;9.85;;;8.48;;
6422;SDS011;3244;42.708;23.288;2023-04-29T03:20:30;12.80;;;8.82;;
6422;SDS011;3244;42.708;23.288;2023-04-29T03:22:57;10.20;;;8.68;;
6422;SDS011;3244;42.708;23.288;2023-04-29T03:25:25;19.48;;;8.65;;
6422;SDS011;3244;42.708;23.288;2023-04-29T03:27:52;12.38;;;8.95;;
6422;SDS011;3244;42.708;23.288;2023-04-29T03:30:19;9.82;;;8.50;;
6422;SDS011;3244;42.708;23.288;2023-04-29T03:32:46;14.50;;;8.95;;
6422;SDS011;3244;42.708;23.288;2023-04-29T03:35:13;11.85;;;9.15;;
6422;SDS011;3244;42.708;23.288;2023-04-29T03:37:41;23.58;;;9.63;;
6422;SDS011;3244;42.708;23.288;2023-04-29T03:40:08;14.43;;;9.32;;
6422;SDS011;3244;42.708;23.288;2023-04-29T03:42:36;17.00;;;9.60;;
6422;SDS011;3244;42.708;23.288;2023-04-29T03:45:03;11.90;;;8.63;;
6422;SDS011;3244;42.708;23.288;2023-04-29T03:47:30;11.23;;;7.95;;
6422;SDS011;3244;42.708;23.288;2023-04-29T03:49:57;9.45;;;7.32;;
6422;SDS011;3244;42.708;23.288;2023-04-29T03:52:24;11.27;;;8.20;;
6422;SDS011;3244;42.708;23.288;2023-04-29T03:54:52;11.88;;;8.05;;
6422;SDS011;3244;42.708;23.288;2023-04-29T03:57:19;11.38;;;8.13;;
6422;SDS011;3244;42.708;23.288;2023-04-29T03:59:45;12.60;;;8.52;;
6422;SDS011;3244;42.708;23.288;2023-04-29T04:02:14;10.90;;;6.95;;
6422;SDS011;3244;42.708;23.288;2023-04-29T04:04:41;8.23;;;6.53;;
6422;SDS011;3244;42.708;23.288;2023-04-29T04:07:07;15.40;;;7.00;;
6422;SDS011;3244;42.708;23.288;2023-04-29T04:09:35;13.77;;;7.85;;
6422;SDS011;3244;42.708;23.288;2023-04-29T04:12:04;10.60;;;7.30;;
6422;SDS011;3244;42.708;23.288;2023-04-29T04:14:31;13.90;;;7.35;;
6422;SDS011;3244;42.708;23.288;2023-04-29T04:16:58;13.95;;;8.15;;
6422;SDS011;3244;42.708;23.288;2023-04-29T04:19:25;13.93;;;7.57;;
6422;SDS011;3244;42.708;23.288;2023-04-29T04:21:53;14.57;;;6.93;;
6422;SDS011;3244;42.708;23.288;2023-04-29T04:24:20;10.85;;;7.25;;
6422;SDS011;3244;42.708;23.288;2023-04-29T04:26:46;10.20;;;7.85;;
6422;SDS011;3244;42.708;23.288;2023-04-29T04:29:14;15.25;;;7.25;;
6422;SDS011;3244;42.708;23.288;2023-04-29T04:31:41;14.55;;;7.50;;
6422;SDS011;3244;42.708;23.288;2023-04-29T04:34:08;9.05;;;6.78;;
6422;SDS011;3244;42.708;23.288;2023-04-29T04:36:35;10.63;;;5.75;;
6422;SDS011;3244;42.708;23.288;2023-04-29T04:39:01;8.20;;;4.85;;
6422;SDS011;3244;42.708;23.288;2023-04-29T04:41:28;8.10;;;4.95;;
6422;SDS011;3244;42.708;23.288;2023-04-29T04:43:56;8.02;;;5.68;;
6422;SDS011;3244;42.708;23.288;2023-04-29T04:46:24;9.93;;;5.95;;
6422;SDS011;3244;42.708;23.288;2023-04-29T04:48:51;9.10;;;5.85;;
6422;SDS011;3244;42.708;23.288;2023-04-29T04:51:18;7.75;;;6.00;;
6422;SDS011;3244;42.708;23.288;2023-04-29T04:53:44;14.32;;;6.68;;
6422;SDS011;3244;42.708;23.288;2023-04-29T04:56:11;8.35;;;5.28;;
6422;SDS011;3244;42.708;23.288;2023-04-29T04:58:38;7.82;;;5.30;;
6422;SDS011;3244;42.708;23.288;2023-04-29T05:01:05;12.93;;;6.60;;
6422;SDS011;3244;42.708;23.288;2023-04-29T05:03:33;8.45;;;7.03;;
6422;SDS011;3244;42.708;23.288;2023-04-29T05:06:00;15.77;;;8.40;;
6422;SDS011;3244;42.708;23.288;2023-04-29T05:08:26;13.23;;;7.03;;
6422;SDS011;3244;42.708;23.288;2023-04-29T05:10:53;10.70;;;6.40;;
6422;SDS011;3244;42.708;23.288;2023-04-29T05:13:20;7.85;;;6.05;;
6422;SDS011;3244;42.708;23.288;2023-04-29T05:15:47;7.00;;;5.53;;
6422;SDS011;3244;42.708;23.288;2023-04-29T05:18:14;8.77;;;5.75;;
6422;SDS011;3244;42.708;23.288;2023-04-29T05:20:42;9.52;;;5.93;;
6422;SDS011;3244;42.708;23.288;2023-04-29T05:23:08;9.15;;;5.90;;
6422;SDS011;3244;42.708;23.288;2023-04-29T05:25:35;12.63;;;6.13;;
6422;SDS011;3244;42.708;23.288;2023-04-29T05:28:02;7.82;;;6.00;;
6422;SDS011;3244;42.708;23.288;2023-04-29T05:30:29;8.95;;;5.60;;
6422;SDS011;3244;42.708;23.288;2023-04-29T05:32:56;10.38;;;6.15;;
6422;SDS011;3244;42.708;23.288;2023-04-29T05:35:23;11.32;;;6.38;;
6422;SDS011;3244;42.708;23.288;2023-04-29T05:37:51;13.32;;;8.73;;
6422;SDS011;3244;42.708;23.288;2023-04-29T05:40:18;15.02;;;8.65;;
6422;SDS011;3244;42.708;23.288;2023-04-29T05:42:47;13.45;;;10.02;;
6422;SDS011;3244;42.708;23.288;2023-04-29T05:45:14;11.68;;;8.32;;
6422;SDS011;3244;42.708;23.288;2023-04-29T05:47:41;8.65;;;7.20;;
6422;SDS011;3244;42.708;23.288;2023-04-29T05:50:07;13.00;;;7.00;;
6422;SDS011;3244;42.708;23.288;2023-04-29T05:52:35;15.52;;;10.98;;
6422;SDS011;3244;42.708;23.288;2023-04-29T05:55:04;22.58;;;15.82;;
6422;SDS011;3244;42.708;23.288;2023-04-29T05:57:31;25.48;;;15.25;;
6422;SDS011;3244;42.708;23.288;2023-04-29T05:59:57;17.70;;;9.77;;
6422;SDS011;3244;42.708;23.288;2023-04-29T06:02:24;32.30;;;17.00;;
6422;SDS011;3244;42.708;23.288;2023-04-29T06:04:51;14.18;;;10.68;;
6422;SDS011;3244;42.708;23.288;2023-04-29T06:07:18;25.40;;;13.55;;
6422;SDS011;3244;42.708;23.288;2023-04-29T06:09:45;21.15;;;13.63;;
6422;SDS011;3244;42.708;23.288;2023-04-29T06:12:13;11.95;;;8.20;;
6422;SDS011;3244;42.708;23.288;2023-04-29T06:14:40;13.98;;;7.43;;
6422;SDS011;3244;42.708;23.288;2023-04-29T06:17:07;12.77;;;6.65;;
6422;SDS011;3244;42.708;23.288;2023-04-29T06:19:34;10.50;;;7.18;;
6422;SDS011;3244;42.708;23.288;2023-04-29T06:22:00;8.88;;;7.20;;
6422;SDS011;3244;42.708;23.288;2023-04-29T06:24:27;11.32;;;6.80;;
6422;SDS011;3244;42.708;23.288;2023-04-29T06:26:54;9.25;;;7.88;;
6422;SDS011;3244;42.708;23.288;2023-04-29T06:29:22;10.73;;;8.23;;
6422;SDS011;3244;42.708;23.288;2023-04-29T06:31:48;11.15;;;7.75;;
6422;SDS011;3244;42.708;23.288;2023-04-29T06:34:15;11.15;;;6.88;;
6422;SDS011;3244;42.708;23.288;2023-04-29T06:36:42;10.50;;;7.63;;
6422;SDS011;3244;42.708;23.288;2023-04-29T06:39:09;9.07;;;7.03;;
6422;SDS011;3244;42.708;23.288;2023-04-29T06:41:35;9.05;;;6.63;;
6422;SDS011;3244;42.708;23.288;2023-04-29T06:44:02;9.93;;;6.88;;
6422;SDS011;3244;42.708;23.288;2023-04-29T06:46:30;8.40;;;6.78;;
6422;SDS011;3244;42.708;23.288;2023-04-29T06:48:58;7.68;;;6.00;;
6422;SDS011;3244;42.708;23.288;2023-04-29T06:51:24;7.88;;;6.18;;
6422;SDS011;3244;42.708;23.288;2023-04-29T06:53:52;6.75;;;4.88;;
6422;SDS011;3244;42.708;23.288;2023-04-29T06:56:18;5.80;;;5.30;;
6422;SDS011;3244;42.708;23.288;2023-04-29T06:58:45;8.82;;;4.80;;
6422;SDS011;3244;42.708;23.288;2023-04-29T07:01:12;6.03;;;4.80;;
6422;SDS011;3244;42.708;23.288;2023-04-29T07:03:40;11.93;;;5.03;;
6422;SDS011;3244;42.708;23.288;2023-04-29T07:06:07;11.13;;;5.43;;
6422;SDS011;3244;42.708;23.288;2023-04-29T07:08:34;11.32;;;7.65;;
6422;SDS011;3244;42.708;23.288;2023-04-29T07:11:01;6.03;;;5.25;;
6422;SDS011;3244;42.708;23.288;2023-04-29T07:13:28;6.10;;;4.97;;
6422;SDS011;3244;42.708;23.288;2023-04-29T07:15:55;6.85;;;5.72;;
6422;SDS011;3244;42.708;23.288;2023-04-29T07:18:21;8.93;;;5.45;;
6422;SDS011;3244;42.708;23.288;2023-04-29T07:20:50;6.78;;;5.25;;
6422;SDS011;3244;42.708;23.288;2023-04-29T07:23:17;11.80;;;5.88;;
6422;SDS011;3244;42.708;23.288;2023-04-29T07:25:43;6.80;;;6.03;;
6422;SDS011;3244;42.708;23.288;2023-04-29T07:28:10;13.77;;;6.35;;
6422;SDS011;3244;42.708;23.288;2023-04-29T07:30:37;7.45;;;6.35;;
6422;SDS011;3244;42.708;23.288;2023-04-29T07:33:03;5.88;;;5.35;;
6422;SDS011;3244;42.708;23.288;2023-04-29T07:35:30;12.50;;;6.18;;
6422;SDS011;3244;42.708;23.288;2023-04-29T07:37:58;9.10;;;6.22;;
6422;SDS011;3244;42.708;23.288;2023-04-29T07:40:25;6.55;;;5.93;;
6422;SDS011;3244;42.708;23.288;2023-04-29T07:42:52;6.53;;;5.43;;
6422;SDS011;3244;42.708;23.288;2023-04-29T07:45:18;6.57;;;6.00;;
6422;SDS011;3244;42.708;23.288;2023-04-29T07:47:45;15.02;;;13.63;;
6422;SDS011;3244;42.708;23.288;2023-04-29T07:50:12;8.20;;;7.50;;
6422;SDS011;3244;42.708;23.288;2023-04-29T07:52:38;6.22;;;5.80;;
6422;SDS011;3244;42.708;23.288;2023-04-29T07:55:07;39.40;;;21.88;;
6422;SDS011;3244;42.708;23.288;2023-04-29T07:57:34;12.98;;;9.35;;
6422;SDS011;3244;42.708;23.288;2023-04-29T08:00:01;15.25;;;11.00;;
6422;SDS011;3244;42.708;23.288;2023-04-29T08:02:28;12.32;;;9.95;;
6422;SDS011;3244;42.708;23.288;2023-04-29T08:04:54;7.80;;;6.93;;
6422;SDS011;3244;42.708;23.288;2023-04-29T08:07:22;10.00;;;8.40;;
6422;SDS011;3244;42.708;23.288;2023-04-29T08:09:48;9.70;;;6.60;;
6422;SDS011;3244;42.708;23.288;2023-04-29T08:12:16;13.95;;;6.05;;
6422;SDS011;3244;42.708;23.288;2023-04-29T08:14:43;7.60;;;5.90;;
6422;SDS011;3244;42.708;23.288;2023-04-29T08:17:10;6.70;;;6.05;;
6422;SDS011;3244;42.708;23.288;2023-04-29T08:19:36;6.75;;;6.10;;
6422;SDS011;3244;42.708;23.288;2023-04-29T08:22:03;9.65;;;5.53;;
6422;SDS011;3244;42.708;23.288;2023-04-29T08:24:30;7.28;;;6.05;;
6422;SDS011;3244;42.708;23.288;2023-04-29T08:26:59;6.63;;;6.05;;
6422;SDS011;3244;42.708;23.288;2023-04-29T08:29:27;5.47;;;4.90;;
6422;SDS011;3244;42.708;23.288;2023-04-29T08:31:56;5.82;;;5.32;;
6422;SDS011;3244;42.708;23.288;2023-04-29T08:34:23;6.68;;;4.60;;
6422;SDS011;3244;42.708;23.288;2023-04-29T08:36:50;7.90;;;5.72;;
6422;SDS011;3244;42.708;23.288;2023-04-29T08:39:16;7.82;;;5.60;;
6422;SDS011;3244;42.708;23.288;2023-04-29T08:41:43;5.38;;;4.97;;
6422;SDS011;3244;42.708;23.288;2023-04-29T08:44:15;7.30;;;5.20;;
6422;SDS011;3244;42.708;23.288;2023-04-29T08:46:43;5.97;;;5.10;;
6422;SDS011;3244;42.708;23.288;2023-04-29T08:49:11;5.80;;;5.13;;
6422;SDS011;3244;42.708;23.288;2023-04-29T08:51:38;6.82;;;4.68;;
6422;SDS011;3244;42.708;23.288;2023-04-29T08:54:05;13.82;;;8.02;;
6422;SDS011;3244;42.708;23.288;2023-04-29T08:56:32;8.52;;;5.82;;
6422;SDS011;3244;42.708;23.288;2023-04-29T08:59:01;9.77;;;5.72;;
6422;SDS011;3244;42.708;23.288;2023-04-29T09:01:28;9.52;;;4.53;;
6422;SDS011;3244;42.708;23.288;2023-04-29T09:04:00;6.32;;;5.03;;
6422;SDS011;3244;42.708;23.288;2023-04-29T09:06:35;7.70;;;5.93;;
6422;SDS011;3244;42.708;23.288;2023-04-29T09:09:02;8.60;;;5.22;;
6422;SDS011;3244;42.708;23.288;2023-04-29T09:11:29;6.97;;;5.20;;
6422;SDS011;3244;42.708;23.288;2023-04-29T09:13:58;9.45;;;5.32;;
6422;SDS011;3244;42.708;23.288;2023-04-29T09:16:26;5.25;;;4.78;;
6422;SDS011;3244;42.708;23.288;2023-04-29T09:18:53;7.32;;;4.93;;
6422;SDS011;3244;42.708;23.288;2023-04-29T09:21:22;11.10;;;5.35;;
6422;SDS011;3244;42.708;23.288;2023-04-29T09:23:51;9.43;;;4.85;;
6422;SDS011;3244;42.708;23.288;2023-04-29T09:26:19;7.15;;;5.45;;
6422;SDS011;3244;42.708;23.288;2023-04-29T09:28:51;10.32;;;4.95;;
6422;SDS011;3244;42.708;23.288;2023-04-29T09:31:31;10.90;;;5.38;;
6422;SDS011;3244;42.708;23.288;2023-04-29T09:33:58;5.60;;;5.10;;
6422;SDS011;3244;42.708;23.288;2023-04-29T09:36:36;5.80;;;5.20;;
6422;SDS011;3244;42.708;23.288;2023-04-29T09:39:05;10.13;;;5.47;;
6422;SDS011;3244;42.708;23.288;2023-04-29T09:41:36;9.20;;;4.85;;
6422;SDS011;3244;42.708;23.288;2023-04-29T09:44:07;5.03;;;4.50;;
6422;SDS011;3244;42.708;23.288;2023-04-29T09:46:36;13.02;;;5.63;;
6422;SDS011;3244;42.708;23.288;2023-04-29T09:49:03;5.35;;;4.78;;
6422;SDS011;3244;42.708;23.288;2023-04-29T09:51:31;7.45;;;5.22;;
6422;SDS011;3244;42.708;23.288;2023-04-29T09:54:16;7.18;;;4.80;;
6422;SDS011;3244;42.708;23.288;2023-04-29T09:56:47;5.47;;;4.75;;
6422;SDS011;3244;42.708;23.288;2023-04-29T09:59:15;4.80;;;4.40;;
6422;SDS011;3244;42.708;23.288;2023-04-29T10:01:42;7.75;;;4.43;;
6422;SDS011;3244;42.708;23.288;2023-04-29T10:04:09;7.93;;;4.57;;
6422;SDS011;3244;42.708;23.288;2023-04-29T10:06:37;4.78;;;4.30;;
6422;SDS011;3244;42.708;23.288;2023-04-29T10:09:07;6.25;;;4.40;;
6422;SDS011;3244;42.708;23.288;2023-04-29T10:11:41;11.73;;;4.90;;
6422;SDS011;3244;42.708;23.288;2023-04-29T10:14:10;6.28;;;4.57;;
6422;SDS011;3244;42.708;23.288;2023-04-29T10:16:39;11.02;;;4.05;;
6422;SDS011;3244;42.708;23.288;2023-04-29T10:19:13;5.75;;;3.75;;
6422;SDS011;3244;42.708;23.288;2023-04-29T10:21:44;6.70;;;3.70;;
6422;SDS011;3244;42.708;23.288;2023-04-29T10:24:15;7.07;;;3.38;;
6422;SDS011;3244;42.708;23.288;2023-04-29T10:26:44;4.80;;;3.38;;
6422;SDS011;3244;42.708;23.288;2023-04-29T10:29:12;8.25;;;3.42;;
6422;SDS011;3244;42.708;23.288;2023-04-29T10:31:40;6.88;;;4.00;;
6422;SDS011;3244;42.708;23.288;2023-04-29T10:34:09;6.60;;;3.78;;
6422;SDS011;3244;42.708;23.288;2023-04-29T10:36:38;7.45;;;3.70;;
6422;SDS011;3244;42.708;23.288;2023-04-29T10:39:06;7.10;;;3.45;;
6422;SDS011;3244;42.708;23.288;2023-04-29T10:41:43;5.10;;;3.25;;
6422;SDS011;3244;42.708;23.288;2023-04-29T10:44:12;6.55;;;3.67;;
6422;SDS011;3244;42.708;23.288;2023-04-29T10:46:39;4.93;;;3.47;;
6422;SDS011;3244;42.708;23.288;2023-04-29T10:49:05;3.92;;;3.58;;
6422;SDS011;3244;42.708;23.288;2023-04-29T10:51:33;9.32;;;3.28;;
6422;SDS011;3244;42.708;23.288;2023-04-29T10:54:01;9.43;;;3.00;;
6422;SDS011;3244;42.708;23.288;2023-04-29T10:56:36;4.47;;;3.60;;
6422;SDS011;3244;42.708;23.288;2023-04-29T10:59:12;5.68;;;3.63;;
6422;SDS011;3244;42.708;23.288;2023-04-29T11:01:40;3.50;;;3.20;;
6422;SDS011;3244;42.708;23.288;2023-04-29T11:04:08;4.00;;;2.83;;
6422;SDS011;3244;42.708;23.288;2023-04-29T11:06:39;6.45;;;3.10;;
6422;SDS011;3244;42.708;23.288;2023-04-29T11:09:09;7.65;;;3.22;;
6422;SDS011;3244;42.708;23.288;2023-04-29T11:11:42;4.90;;;3.15;;
6422;SDS011;3244;42.708;23.288;2023-04-29T11:14:11;2.67;;;2.45;;
6422;SDS011;3244;42.708;23.288;2023-04-29T11:16:45;2.63;;;2.30;;
6422;SDS011;3244;42.708;23.288;2023-04-29T11:19:14;3.15;;;2.33;;
6422;SDS011;3244;42.708;23.288;2023-04-29T11:21:41;3.53;;;2.65;;
6422;SDS011;3244;42.708;23.288;2023-04-29T11:24:09;2.30;;;2.10;;
6422;SDS011;3244;42.708;23.288;2023-04-29T11:26:37;2.25;;;2.05;;
6422;SDS011;3244;42.708;23.288;2023-04-29T11:29:04;2.63;;;2.42;;
6422;SDS011;3244;42.708;23.288;2023-04-29T11:31:34;5.18;;;2.40;;
6422;SDS011;3244;42.708;23.288;2023-04-29T11:34:02;5.20;;;2.28;;
6422;SDS011;3244;42.708;23.288;2023-04-29T11:36:30;2.20;;;2.00;;
6422;SDS011;3244;42.708;23.288;2023-04-29T11:38:58;2.67;;;2.28;;
6422;SDS011;3244;42.708;23.288;2023-04-29T11:41:26;5.63;;;2.22;;
6422;SDS011;3244;42.708;23.288;2023-04-29T11:43:56;2.25;;;1.90;;
6422;SDS011;3244;42.708;23.288;2023-04-29T11:46:23;2.13;;;2.00;;
6422;SDS011;3244;42.708;23.288;2023-04-29T11:48:56;2.22;;;2.10;;
6422;SDS011;3244;42.708;23.288;2023-04-29T11:51:23;3.08;;;1.60;;
6422;SDS011;3244;42.708;23.288;2023-04-29T11:53:51;3.90;;;1.92;;
6422;SDS011;3244;42.708;23.288;2023-04-29T11:56:20;4.13;;;2.00;;
6422;SDS011;3244;42.708;23.288;2023-04-29T11:58:47;3.45;;;3.15;;
6422;SDS011;3244;42.708;23.288;2023-04-29T12:01:13;2.72;;;2.53;;
6422;SDS011;3244;42.708;23.288;2023-04-29T12:03:40;7.43;;;2.20;;
6422;SDS011;3244;42.708;23.288;2023-04-29T12:06:12;2.65;;;1.65;;
6422;SDS011;3244;42.708;23.288;2023-04-29T12:08:39;3.05;;;2.03;;
6422;SDS011;3244;42.708;23.288;2023-04-29T12:11:05;2.85;;;2.38;;
6422;SDS011;3244;42.708;23.288;2023-04-29T12:13:33;2.55;;;2.40;;
6422;SDS011;3244;42.708;23.288;2023-04-29T12:16:00;2.42;;;2.22;;
6422;SDS011;3244;42.708;23.288;2023-04-29T12:18:28;1.60;;;1.50;;
6422;SDS011;3244;42.708;23.288;2023-04-29T12:20:55;1.65;;;1.55;;
6422;SDS011;3244;42.708;23.288;2023-04-29T12:23:23;4.20;;;2.22;;
6422;SDS011;3244;42.708;23.288;2023-04-29T12:25:53;2.70;;;1.45;;
6422;SDS011;3244;42.708;23.288;2023-04-29T12:28:21;3.20;;;2.60;;
6422;SDS011;3244;42.708;23.288;2023-04-29T12:30:50;2.90;;;2.10;;
6422;SDS011;3244;42.708;23.288;2023-04-29T12:33:19;3.53;;;1.65;;
6422;SDS011;3244;42.708;23.288;2023-04-29T12:35:47;5.03;;;1.80;;
6422;SDS011;3244;42.708;23.288;2023-04-29T12:38:25;2.10;;;1.83;;
6422;SDS011;3244;42.708;23.288;2023-04-29T12:40:53;3.42;;;1.63;;
6422;SDS011;3244;42.708;23.288;2023-04-29T12:43:24;1.92;;;1.83;;
6422;SDS011;3244;42.708;23.288;2023-04-29T12:45:53;3.85;;;2.30;;
6422;SDS011;3244;42.708;23.288;2023-04-29T12:48:20;2.40;;;2.10;;
6422;SDS011;3244;42.708;23.288;2023-04-29T12:50:48;4.32;;;3.40;;
6422;SDS011;3244;42.708;23.288;2023-04-29T12:53:15;1.55;;;1.45;;
6422;SDS011;3244;42.708;23.288;2023-04-29T12:55:43;2.28;;;2.05;;
6422;SDS011;3244;42.708;23.288;2023-04-29T12:58:10;2.28;;;2.10;;
6422;SDS011;3244;42.708;23.288;2023-04-29T13:00:37;2.15;;;1.95;;
6422;SDS011;3244;42.708;23.288;2023-04-29T13:03:04;1.70;;;1.60;;
6422;SDS011;3244;42.708;23.288;2023-04-29T13:05:31;2.72;;;2.53;;
6422;SDS011;3244;42.708;23.288;2023-04-29T13:07:57;2.30;;;2.10;;
6422;SDS011;3244;42.708;23.288;2023-04-29T13:10:24;5.55;;;2.15;;
6422;SDS011;3244;42.708;23.288;2023-04-29T13:12:53;3.28;;;2.38;;
6422;SDS011;3244;42.708;23.288;2023-04-29T13:15:20;3.75;;;2.45;;
6422;SDS011;3244;42.708;23.288;2023-04-29T13:17:47;2.38;;;2.00;;
6422;SDS011;3244;42.708;23.288;2023-04-29T13:20:14;4.38;;;2.05;;
6422;SDS011;3244;42.708;23.288;2023-04-29T13:22:41;3.33;;;1.92;;
6422;SDS011;3244;42.708;23.288;2023-04-29T13:25:08;6.93;;;6.30;;
6422;SDS011;3244;42.708;23.288;2023-04-29T13:27:36;10.38;;;8.00;;
6422;SDS011;3244;42.708;23.288;2023-04-29T13:30:04;22.00;;;15.30;;
6422;SDS011;3244;42.708;23.288;2023-04-29T13:32:32;8.07;;;6.75;;
6422;SDS011;3244;42.708;23.288;2023-04-29T13:34:58;6.70;;;4.75;;
6422;SDS011;3244;42.708;23.288;2023-04-29T13:37:25;5.13;;;3.90;;
6422;SDS011;3244;42.708;23.288;2023-04-29T13:39:52;3.95;;;2.95;;
6422;SDS011;3244;42.708;23.288;2023-04-29T13:42:19;2.28;;;2.00;;
6422;SDS011;3244;42.708;23.288;2023-04-29T13:44:45;2.33;;;2.13;;
6422;SDS011;3244;42.708;23.288;2023-04-29T13:47:14;1.63;;;1.35;;
6422;SDS011;3244;42.708;23.288;2023-04-29T13:49:41;4.47;;;2.22;;
6422;SDS011;3244;42.708;23.288;2023-04-29T13:52:09;1.75;;;1.65;;
6422;SDS011;3244;42.708;23.288;2023-04-29T13:54:36;3.00;;;2.28;;
6422;SDS011;3244;42.708;23.288;2023-04-29T13:57:03;1.83;;;1.70;;
6422;SDS011;3244;42.708;23.288;2023-04-29T13:59:30;1.98;;;1.70;;
6422;SDS011;3244;42.708;23.288;2023-04-29T14:01:57;1.60;;;1.50;;
6422;SDS011;3244;42.708;23.288;2023-04-29T14:04:26;1.98;;;1.35;;
6422;SDS011;3244;42.708;23.288;2023-04-29T14:06:53;5.70;;;2.15;;
6422;SDS011;3244;42.708;23.288;2023-04-29T14:09:21;3.65;;;2.15;;
6422;SDS011;3244;42.708;23.288;2023-04-29T14:11:48;12.07;;;8.43;;
6422;SDS011;3244;42.708;23.288;2023-04-29T14:14:15;4.90;;;4.50;;
6422;SDS011;3244;42.708;23.288;2023-04-29T14:16:42;5.32;;;4.43;;
6422;SDS011;3244;42.708;23.288;2023-04-29T14:19:09;4.25;;;3.95;;
6422;SDS011;3244;42.708;23.288;2023-04-29T14:21:37;3.00;;;2.65;;
6422;SDS011;3244;42.708;23.288;2023-04-29T14:24:04;4.35;;;2.63;;
6422;SDS011;3244;42.708;23.288;2023-04-29T14:26:30;3.30;;;3.10;;
6422;SDS011;3244;42.708;23.288;2023-04-29T14:28:57;3.33;;;2.15;;
6422;SDS011;3244;42.708;23.288;2023-04-29T14:31:25;2.60;;;2.40;;
6422;SDS011;3244;42.708;23.288;2023-04-29T14:33:53;3.08;;;2.78;;
6422;SDS011;3244;42.708;23.288;2023-04-29T14:36:20;3.90;;;2.42;;
6422;SDS011;3244;42.708;23.288;2023-04-29T14:38:48;2.85;;;2.65;;
6422;SDS011;3244;42.708;23.288;2023-04-29T14:41:15;3.28;;;3.08;;
6422;SDS011;3244;42.708;23.288;2023-04-29T14:43:41;4.30;;;3.97;;
6422;SDS011;3244;42.708;23.288;2023-04-29T14:46:08;5.63;;;3.90;;
6422;SDS011;3244;42.708;23.288;2023-04-29T14:48:35;3.70;;;3.38;;
6422;SDS011;3244;42.708;23.288;2023-04-29T14:51:02;6.18;;;5.57;;
6422;SDS011;3244;42.708;23.288;2023-04-29T14:53:30;13.10;;;11.45;;
6422;SDS011;3244;42.708;23.288;2023-04-29T14:55:58;5.63;;;5.13;;
6422;SDS011;3244;42.708;23.288;2023-04-29T14:58:25;5.70;;;4.93;;
6422;SDS011;3244;42.708;23.288;2023-04-29T15:00:51;4.28;;;3.95;;